sensor_id;sensor_type;location;lat;lon;timestamp;pressure;altitude;pressure_sealevel;temperature;humidity
70323;BME280;57735;56.264;43.898;2023-04-01T00:02:21;99675.84;;;3.42;70.69
70323;BME280;57735;56.264;43.898;2023-04-01T00:04:52;99675.59;;;3.45;70.63
70323;BME280;57735;56.264;43.898;2023-04-01T00:07:22;99673.06;;;3.43;70.70
70323;BME280;57735;56.264;43.898;2023-04-01T00:09:53;99672.13;;;3.44;70.65
70323;BME280;57735;56.264;43.898;2023-04-01T00:12:23;99661.69;;;3.43;70.96
70323;BME280;57735;56.264;43.898;2023-04-01T00:14:55;99666.25;;;3.41;70.82
70323;BME280;57735;56.264;43.898;2023-04-01T00:17:26;99659.31;;;3.40;71.21
70323;BME280;57735;56.264;43.898;2023-04-01T00:19:57;99656.06;;;3.47;71.30
70323;BME280;57735;56.264;43.898;2023-04-01T00:22:28;99664.09;;;3.46;71.04
70323;BME280;57735;56.264;43.898;2023-04-01T00:24:58;99661.56;;;3.44;71.42
70323;BME280;57735;56.264;43.898;2023-04-01T00:27:29;99655.09;;;3.48;71.48
70323;BME280;57735;56.264;43.898;2023-04-01T00:29:59;99652.22;;;3.52;71.66
70323;BME280;57735;56.264;43.898;2023-04-01T00:32:37;99641.53;;;3.53;71.49
70323;BME280;57735;56.264;43.898;2023-04-01T00:35:10;99636.97;;;3.55;71.67
70323;BME280;57735;56.264;43.898;2023-04-01T00:37:41;99643.06;;;3.56;71.35
70323;BME280;57735;56.264;43.898;2023-04-01T00:40:22;99652.66;;;3.57;71.75
70323;BME280;57735;56.264;43.898;2023-04-01T00:42:53;99647.97;;;3.60;71.73
70323;BME280;57735;56.264;43.898;2023-04-01T00:45:29;99658.63;;;3.59;71.76
70323;BME280;57735;56.264;43.898;2023-04-01T00:48:02;99647.97;;;3.60;72.03
70323;BME280;57735;56.264;43.898;2023-04-01T00:50:35;99646.31;;;3.59;72.00
70323;BME280;57735;56.264;43.898;2023-04-01T00:53:09;99650.72;;;3.59;72.10
70323;BME280;57735;56.264;43.898;2023-04-01T00:55:41;99643.28;;;3.64;71.90
70323;BME280;57735;56.264;43.898;2023-04-01T00:58:17;99638.97;;;3.63;71.79
70323;BME280;57735;56.264;43.898;2023-04-01T01:00:49;99638.84;;;3.64;71.87
70323;BME280;57735;56.264;43.898;2023-04-01T01:03:23;99634.56;;;3.63;72.09
70323;BME280;57735;56.264;43.898;2023-04-01T01:06:03;99632.88;;;3.62;72.00
70323;BME280;57735;56.264;43.898;2023-04-01T01:11:31;99632.03;;;3.62;72.29
70323;BME280;57735;56.264;43.898;2023-04-01T01:16:51;99635.88;;;3.58;72.60
70323;BME280;57735;56.264;43.898;2023-04-01T01:19:40;99635.75;;;3.59;72.59
70323;BME280;57735;56.264;43.898;2023-04-01T01:22:31;99632.16;;;3.60;72.60
70323;BME280;57735;56.264;43.898;2023-04-01T01:28:36;99629.28;;;3.63;72.75
70323;BME280;57735;56.264;43.898;2023-04-01T01:33:21;99628.31;;;3.64;72.65
70323;BME280;57735;56.264;43.898;2023-04-01T01:35:56;99627.47;;;3.64;72.69
70323;BME280;57735;56.264;43.898;2023-04-01T01:38:29;99632.03;;;3.62;72.54
70323;BME280;57735;56.264;43.898;2023-04-01T01:41:02;99632.16;;;3.60;72.74
70323;BME280;57735;56.264;43.898;2023-04-01T01:43:41;99630.25;;;3.62;73.01
70323;BME280;57735;56.264;43.898;2023-04-01T01:46:14;99631.31;;;3.60;72.95
70323;BME280;57735;56.264;43.898;2023-04-01T01:48:46;99630.50;;;3.59;72.80
70323;BME280;57735;56.264;43.898;2023-04-01T01:51:21;99639.22;;;3.60;73.04
70323;BME280;57735;56.264;43.898;2023-04-01T01:53:52;99626.91;;;3.60;72.99
70323;BME280;57735;56.264;43.898;2023-04-01T01:56:23;99626.19;;;3.58;73.04
70323;BME280;57735;56.264;43.898;2023-04-01T01:59:00;99627.72;;;3.61;73.18
70323;BME280;57735;56.264;43.898;2023-04-01T02:01:33;99624.00;;;3.63;72.85
70323;BME280;57735;56.264;43.898;2023-04-01T02:04:09;99619.94;;;3.59;73.19
70323;BME280;57735;56.264;43.898;2023-04-01T02:06:42;99620.19;;;3.56;72.91
70323;BME280;57735;56.264;43.898;2023-04-01T02:09:16;99616.00;;;3.54;73.25
70323;BME280;57735;56.264;43.898;2023-04-01T02:11:57;99612.69;;;3.52;73.25
70323;BME280;57735;56.264;43.898;2023-04-01T02:14:33;99621.69;;;3.49;73.39
70323;BME280;57735;56.264;43.898;2023-04-01T02:17:08;99613.06;;;3.47;73.68
70323;BME280;57735;56.264;43.898;2023-04-01T02:19:46;99616.53;;;3.47;73.61
70323;BME280;57735;56.264;43.898;2023-04-01T02:22:20;99611.88;;;3.51;73.64
70323;BME280;57735;56.264;43.898;2023-04-01T02:24:53;99616.97;;;3.53;73.48
70323;BME280;57735;56.264;43.898;2023-04-01T02:27:25;99614.94;;;3.56;73.65
70323;BME280;57735;56.264;43.898;2023-04-01T02:29:58;99615.41;;;3.61;73.56
70323;BME280;57735;56.264;43.898;2023-04-01T02:32:28;99619.44;;;3.65;73.41
70323;BME280;57735;56.264;43.898;2023-04-01T02:35:00;99622.91;;;3.66;73.44
70323;BME280;57735;56.264;43.898;2023-04-01T02:37:33;99625.69;;;3.64;73.31
70323;BME280;57735;56.264;43.898;2023-04-01T02:40:14;99619.81;;;3.61;73.19
70323;BME280;57735;56.264;43.898;2023-04-01T02:42:44;99618.75;;;3.63;73.29
70323;BME280;57735;56.264;43.898;2023-04-01T02:45:18;99612.94;;;3.69;73.14
70323;BME280;57735;56.264;43.898;2023-04-01T02:47:49;99613.09;;;3.68;72.99
70323;BME280;57735;56.264;43.898;2023-04-01T02:50:19;99617.38;;;3.69;72.98
70323;BME280;57735;56.264;43.898;2023-04-01T02:52:50;99628.31;;;3.64;73.00
70323;BME280;57735;56.264;43.898;2023-04-01T02:55:20;99619.44;;;3.65;73.09
70323;BME280;57735;56.264;43.898;2023-04-01T02:57:51;99623.47;;;3.69;73.04
70323;BME280;57735;56.264;43.898;2023-04-01T03:00:21;99628.50;;;3.72;73.00
70323;BME280;57735;56.264;43.898;2023-04-01T03:02:52;99620.84;;;3.69;72.98
70323;BME280;57735;56.264;43.898;2023-04-01T03:05:23;99625.44;;;3.67;73.21
70323;BME280;57735;56.264;43.898;2023-04-01T03:07:53;99616.56;;;3.68;73.17
70323;BME280;57735;56.264;43.898;2023-04-01T03:10:24;99628.63;;;3.71;72.92
70323;BME280;57735;56.264;43.898;2023-04-01T03:12:54;99624.31;;;3.70;72.73
70323;BME280;57735;56.264;43.898;2023-04-01T03:15:25;99617.78;;;3.64;72.97
70323;BME280;57735;56.264;43.898;2023-04-01T03:17:58;99621.13;;;3.66;73.01
70323;BME280;57735;56.264;43.898;2023-04-01T03:20:28;99623.63;;;3.68;73.00
70323;BME280;57735;56.264;43.898;2023-04-01T03:22:59;99622.63;;;3.69;72.89
70323;BME280;57735;56.264;43.898;2023-04-01T03:25:29;99628.50;;;3.72;72.79
70323;BME280;57735;56.264;43.898;2023-04-01T03:28:00;99624.91;;;3.73;72.48
70323;BME280;57735;56.264;43.898;2023-04-01T03:30:31;99625.16;;;3.70;72.69
70323;BME280;57735;56.264;43.898;2023-04-01T03:33:01;99625.16;;;3.70;72.67
70323;BME280;57735;56.264;43.898;2023-04-01T03:35:33;99629.75;;;3.68;72.63
70323;BME280;57735;56.264;43.898;2023-04-01T03:38:06;99626.56;;;3.74;72.74
70323;BME280;57735;56.264;43.898;2023-04-01T03:40:36;99626.31;;;3.77;72.70
70323;BME280;57735;56.264;43.898;2023-04-01T03:43:08;99623.94;;;3.74;72.49
70323;BME280;57735;56.264;43.898;2023-04-01T03:45:43;99626.81;;;3.71;72.80
70323;BME280;57735;56.264;43.898;2023-04-01T03:48:14;99624.91;;;3.73;72.82
70323;BME280;57735;56.264;43.898;2023-04-01T03:50:54;99630.28;;;3.72;72.85
70323;BME280;57735;56.264;43.898;2023-04-01T03:53:27;99631.53;;;3.68;72.89
70323;BME280;57735;56.264;43.898;2023-04-01T03:55:58;99627.91;;;3.69;72.96
70323;BME280;57735;56.264;43.898;2023-04-01T03:58:28;99631.00;;;3.74;72.86
70323;BME280;57735;56.264;43.898;2023-04-01T04:00:59;99635.31;;;3.75;72.87
70323;BME280;57735;56.264;43.898;2023-04-01T04:03:30;99635.06;;;3.78;72.59
70323;BME280;57735;56.264;43.898;2023-04-01T04:06:00;99632.31;;;3.79;72.44
70323;BME280;57735;56.264;43.898;2023-04-01T04:08:31;99641.88;;;3.80;72.60
70323;BME280;57735;56.264;43.898;2023-04-01T04:11:01;99633.44;;;3.86;72.45
70323;BME280;57735;56.264;43.898;2023-04-01T04:13:32;99633.91;;;3.92;72.36
70323;BME280;57735;56.264;43.898;2023-04-01T04:16:05;99634.66;;;4.03;72.50
70323;BME280;57735;56.264;43.898;2023-04-01T04:18:35;99638.69;;;4.07;71.93
70323;BME280;57735;56.264;43.898;2023-04-01T04:21:06;99640.38;;;4.08;71.87
70323;BME280;57735;56.264;43.898;2023-04-01T04:23:37;99633.88;;;4.12;71.92
70323;BME280;57735;56.264;43.898;2023-04-01T04:26:10;99639.03;;;4.14;71.70
70323;BME280;57735;56.264;43.898;2023-04-01T04:28:41;99637.94;;;4.16;71.48
70323;BME280;57735;56.264;43.898;2023-04-01T04:31:12;99637.34;;;4.13;71.28
70323;BME280;57735;56.264;43.898;2023-04-01T04:33:48;99635.44;;;4.15;71.40
70323;BME280;57735;56.264;43.898;2023-04-01T04:36:18;99637.09;;;4.16;71.13
70323;BME280;57735;56.264;43.898;2023-04-01T04:38:49;99635.28;;;4.16;71.14
70323;BME280;57735;56.264;43.898;2023-04-01T04:41:20;99632.53;;;4.18;71.50
70323;BME280;57735;56.264;43.898;2023-04-01T04:43:59;99640.03;;;4.22;71.48
70323;BME280;57735;56.264;43.898;2023-04-01T04:46:29;99634.88;;;4.21;70.73
70323;BME280;57735;56.264;43.898;2023-04-01T04:49:03;99636.13;;;4.17;71.06
70323;BME280;57735;56.264;43.898;2023-04-01T04:51:33;99637.94;;;4.16;71.16
70323;BME280;57735;56.264;43.898;2023-04-01T04:54:06;99624.75;;;4.16;70.82
70323;BME280;57735;56.264;43.898;2023-04-01T04:56:39;99636.56;;;4.22;71.10
70323;BME280;57735;56.264;43.898;2023-04-01T04:59:09;99637.97;;;4.26;71.32
70323;BME280;57735;56.264;43.898;2023-04-01T05:01:40;99637.13;;;4.26;70.73
70323;BME280;57735;56.264;43.898;2023-04-01T05:04:10;99637.38;;;4.22;70.81
70323;BME280;57735;56.264;43.898;2023-04-01T05:06:42;99642.53;;;4.24;71.22
70323;BME280;57735;56.264;43.898;2023-04-01T05:09:14;99644.66;;;4.30;71.40
70323;BME280;57735;56.264;43.898;2023-04-01T05:11:45;99647.47;;;4.38;71.11
70323;BME280;57735;56.264;43.898;2023-04-01T05:14:15;99646.50;;;4.39;71.36
70323;BME280;57735;56.264;43.898;2023-04-01T05:16:46;99641.09;;;4.41;70.91
70323;BME280;57735;56.264;43.898;2023-04-01T05:19:16;99647.19;;;4.41;70.81
70323;BME280;57735;56.264;43.898;2023-04-01T05:21:47;99637.47;;;4.42;71.01
70323;BME280;57735;56.264;43.898;2023-04-01T05:24:17;99642.50;;;4.45;70.86
70323;BME280;57735;56.264;43.898;2023-04-01T05:26:48;99644.44;;;4.43;70.39
70323;BME280;57735;56.264;43.898;2023-04-01T05:29:18;99640.97;;;4.42;70.49
70323;BME280;57735;56.264;43.898;2023-04-01T05:31:49;99645.00;;;4.46;70.67
70323;BME280;57735;56.264;43.898;2023-04-01T05:34:22;99642.50;;;4.45;70.63
70323;BME280;57735;56.264;43.898;2023-04-01T05:36:52;99638.06;;;4.45;70.21
70323;BME280;57735;56.264;43.898;2023-04-01T05:39:23;99654.03;;;4.53;70.53
70323;BME280;57735;56.264;43.898;2023-04-01T05:41:53;99641.28;;;4.59;70.06
70323;BME280;57735;56.264;43.898;2023-04-01T05:44:24;99640.78;;;4.65;70.22
70323;BME280;57735;56.264;43.898;2023-04-01T05:46:54;99642.31;;;4.67;70.08
70323;BME280;57735;56.264;43.898;2023-04-01T05:49:27;99638.16;;;4.74;69.95
70323;BME280;57735;56.264;43.898;2023-04-01T05:51:58;99642.75;;;4.82;69.69
70323;BME280;57735;56.264;43.898;2023-04-01T05:54:28;99643.47;;;4.84;69.62
70323;BME280;57735;56.264;43.898;2023-04-01T05:56:59;99639.69;;;4.86;69.26
70323;BME280;57735;56.264;43.898;2023-04-01T05:59:30;99632.63;;;4.87;69.22
70323;BME280;57735;56.264;43.898;2023-04-01T06:02:01;99648.47;;;4.87;68.71
70323;BME280;57735;56.264;43.898;2023-04-01T06:04:34;99644.00;;;4.87;68.55
70323;BME280;57735;56.264;43.898;2023-04-01T06:07:13;99643.75;;;4.90;68.60
70323;BME280;57735;56.264;43.898;2023-04-01T06:09:47;99648.75;;;4.94;68.44
70323;BME280;57735;56.264;43.898;2023-04-01T06:12:29;99646.41;;;5.00;68.27
70323;BME280;57735;56.264;43.898;2023-04-01T06:20:25;99649.38;;;5.36;67.01
70323;BME280;57735;56.264;43.898;2023-04-01T06:39:08;99654.38;;;5.58;63.12
70323;BME280;57735;56.264;43.898;2023-04-01T06:44:23;99657.16;;;5.95;63.23
70323;BME280;57735;56.264;43.898;2023-04-01T06:47:22;99666.41;;;6.28;62.71
70323;BME280;57735;56.264;43.898;2023-04-01T06:52:36;99659.03;;;6.32;60.90
70323;BME280;57735;56.264;43.898;2023-04-01T06:58:21;99677.19;;;6.17;60.40
70323;BME280;57735;56.264;43.898;2023-04-01T07:00:59;99669.63;;;6.22;60.68
70323;BME280;57735;56.264;43.898;2023-04-01T07:06:13;99654.53;;;6.42;60.89
70323;BME280;57735;56.264;43.898;2023-04-01T07:08:49;99667.97;;;6.68;60.92
70323;BME280;57735;56.264;43.898;2023-04-01T07:11:24;99674.66;;;6.62;60.12
70323;BME280;57735;56.264;43.898;2023-04-01T07:14:01;99686.34;;;6.22;60.62
70323;BME280;57735;56.264;43.898;2023-04-01T07:16:34;99692.47;;;6.23;61.36
70323;BME280;57735;56.264;43.898;2023-04-01T07:21:46;99681.50;;;6.64;61.08
70323;BME280;57735;56.264;43.898;2023-04-01T07:24:25;99682.47;;;6.63;59.56
70323;BME280;57735;56.264;43.898;2023-04-01T07:27:00;99692.84;;;6.47;60.27
70323;BME280;57735;56.264;43.898;2023-04-01T07:29:30;99708.91;;;6.36;60.77
70323;BME280;57735;56.264;43.898;2023-04-01T07:32:09;99704.72;;;6.24;60.96
70323;BME280;57735;56.264;43.898;2023-04-01T07:37:18;99709.78;;;6.17;62.01
70323;BME280;57735;56.264;43.898;2023-04-01T07:39:59;99709.34;;;6.12;62.06
70323;BME280;57735;56.264;43.898;2023-04-01T07:45:26;99717.41;;;6.20;61.39
70323;BME280;57735;56.264;43.898;2023-04-01T07:48:09;99733.03;;;5.94;62.57
70323;BME280;57735;56.264;43.898;2023-04-01T08:06:37;99745.78;;;6.47;62.80
70323;BME280;57735;56.264;43.898;2023-04-01T08:12:01;99742.22;;;6.76;61.54
70323;BME280;57735;56.264;43.898;2023-04-01T08:17:09;99757.88;;;6.69;61.65
70323;BME280;57735;56.264;43.898;2023-04-01T08:22:26;99758.44;;;6.63;61.47
70323;BME280;57735;56.264;43.898;2023-04-01T08:24:59;99761.50;;;6.58;62.04
70323;BME280;57735;56.264;43.898;2023-04-01T08:27:34;99764.19;;;6.49;61.38
70323;BME280;57735;56.264;43.898;2023-04-01T08:30:17;99764.78;;;6.33;62.30
70323;BME280;57735;56.264;43.898;2023-04-01T08:32:51;99778.69;;;6.35;63.00
70323;BME280;57735;56.264;43.898;2023-04-01T08:35:28;99771.28;;;6.48;62.99
70323;BME280;57735;56.264;43.898;2023-04-01T08:38:01;99773.19;;;6.56;62.73
70323;BME280;57735;56.264;43.898;2023-04-01T08:43:28;99789.97;;;6.37;61.61
70323;BME280;57735;56.264;43.898;2023-04-01T08:56:47;99804.59;;;6.22;62.10
70323;BME280;57735;56.264;43.898;2023-04-01T08:59:29;99813.38;;;6.13;62.19
70323;BME280;57735;56.264;43.898;2023-04-01T09:15:20;99844.31;;;6.03;63.65
70323;BME280;57735;56.264;43.898;2023-04-01T09:41:28;99876.09;;;6.51;63.70
70323;BME280;57735;56.264;43.898;2023-04-01T09:49:36;99882.78;;;6.36;65.44
70323;BME280;57735;56.264;43.898;2023-04-01T09:52:20;99881.66;;;6.48;65.16
70323;BME280;57735;56.264;43.898;2023-04-01T09:54:58;99884.44;;;6.46;66.30
70323;BME280;57735;56.264;43.898;2023-04-01T10:08:34;99901.00;;;6.58;65.43
70323;BME280;57735;56.264;43.898;2023-04-01T10:16:21;99900.56;;;6.72;64.03
70323;BME280;57735;56.264;43.898;2023-04-01T10:24:05;99904.06;;;6.73;62.83
70323;BME280;57735;56.264;43.898;2023-04-01T10:26:58;99917.16;;;7.03;61.99
70323;BME280;57735;56.264;43.898;2023-04-01T10:35:03;99925.34;;;7.19;60.87
70323;BME280;57735;56.264;43.898;2023-04-01T10:40:47;99924.19;;;7.31;60.31
70323;BME280;57735;56.264;43.898;2023-04-01T10:48:23;99951.41;;;7.24;60.04
70323;BME280;57735;56.264;43.898;2023-04-01T10:51:14;99946.44;;;7.58;59.41
70323;BME280;57735;56.264;43.898;2023-04-01T11:07:22;99971.69;;;6.86;59.01
70323;BME280;57735;56.264;43.898;2023-04-01T11:18:02;99983.38;;;6.55;60.50
70323;BME280;57735;56.264;43.898;2023-04-01T11:26:18;100007.81;;;6.97;60.22
70323;BME280;57735;56.264;43.898;2023-04-01T11:32:02;100012.09;;;7.37;60.13
70323;BME280;57735;56.264;43.898;2023-04-01T11:45:23;100023.69;;;7.26;59.11
70323;BME280;57735;56.264;43.898;2023-04-01T11:48:03;100013.19;;;7.44;58.55
70323;BME280;57735;56.264;43.898;2023-04-01T11:56:12;100021.69;;;7.38;57.72
70323;BME280;57735;56.264;43.898;2023-04-01T12:14:30;100023.75;;;7.63;56.55
70323;BME280;57735;56.264;43.898;2023-04-01T12:17:26;100031.72;;;7.63;56.92
70323;BME280;57735;56.264;43.898;2023-04-01T12:20:04;100030.00;;;7.71;57.05
70323;BME280;57735;56.264;43.898;2023-04-01T12:38:48;100044.66;;;7.85;57.08
70323;BME280;57735;56.264;43.898;2023-04-01T12:41:24;100064.34;;;7.73;57.08
70323;BME280;57735;56.264;43.898;2023-04-01T12:51:57;100092.94;;;7.98;55.66
70323;BME280;57735;56.264;43.898;2023-04-01T12:57:29;100097.81;;;8.03;55.76
70323;BME280;57735;56.264;43.898;2023-04-01T13:10:58;100099.53;;;7.75;54.95
70323;BME280;57735;56.264;43.898;2023-04-01T13:13:47;100107.09;;;7.60;54.65
70323;BME280;57735;56.264;43.898;2023-04-01T13:16:35;100108.09;;;7.50;55.12
70323;BME280;57735;56.264;43.898;2023-04-01T13:19:09;100121.47;;;7.58;55.61
70323;BME280;57735;56.264;43.898;2023-04-01T13:27:11;100123.03;;;7.70;55.05
70323;BME280;57735;56.264;43.898;2023-04-01T13:29:57;100121.34;;;7.59;55.28
70323;BME280;57735;56.264;43.898;2023-04-01T13:38:17;100140.19;;;7.27;55.59
70323;BME280;57735;56.264;43.898;2023-04-01T13:43:28;100153.28;;;7.10;56.38
70323;BME280;57735;56.264;43.898;2023-04-01T13:56:58;100170.41;;;6.86;57.69
70323;BME280;57735;56.264;43.898;2023-04-01T14:04:41;100189.59;;;6.79;58.35
70323;BME280;57735;56.264;43.898;2023-04-01T14:10:28;100185.47;;;6.95;58.21
70323;BME280;57735;56.264;43.898;2023-04-01T14:16:00;100191.66;;;7.25;57.75
70323;BME280;57735;56.264;43.898;2023-04-01T14:35:21;100232.19;;;6.96;57.11
70323;BME280;57735;56.264;43.898;2023-04-01T14:38:01;100233.56;;;6.91;57.30
70323;BME280;57735;56.264;43.898;2023-04-01T14:48:17;100243.28;;;6.81;58.41
70323;BME280;57735;56.264;43.898;2023-04-01T14:50:53;100249.44;;;6.81;58.09
70323;BME280;57735;56.264;43.898;2023-04-01T14:53:26;100257.78;;;6.77;58.42
70323;BME280;57735;56.264;43.898;2023-04-01T14:55:59;100258.88;;;6.74;58.25
70323;BME280;57735;56.264;43.898;2023-04-01T14:58:51;100261.94;;;6.70;58.20
70323;BME280;57735;56.264;43.898;2023-04-01T15:01:42;100261.34;;;6.66;58.39
70323;BME280;57735;56.264;43.898;2023-04-01T15:07:20;100272.25;;;6.73;58.66
70323;BME280;57735;56.264;43.898;2023-04-01T15:09:58;100274.75;;;6.74;58.30
70323;BME280;57735;56.264;43.898;2023-04-01T15:23:36;100284.53;;;6.74;58.01
70323;BME280;57735;56.264;43.898;2023-04-01T15:26:13;100290.91;;;6.71;58.21
70323;BME280;57735;56.264;43.898;2023-04-01T15:31:29;100296.75;;;6.65;58.67
70323;BME280;57735;56.264;43.898;2023-04-01T15:34:11;100307.59;;;6.62;58.56
70323;BME280;57735;56.264;43.898;2023-04-01T15:42:17;100331.09;;;6.55;58.95
70323;BME280;57735;56.264;43.898;2023-04-01T15:52:40;100348.75;;;6.45;59.72
70323;BME280;57735;56.264;43.898;2023-04-01T15:55:17;100347.78;;;6.46;60.38
70323;BME280;57735;56.264;43.898;2023-04-01T16:00:28;100355.84;;;6.45;60.47
70323;BME280;57735;56.264;43.898;2023-04-01T16:03:18;100349.25;;;6.39;60.42
70323;BME280;57735;56.264;43.898;2023-04-01T16:06:08;100370.94;;;6.33;60.81
70323;BME280;57735;56.264;43.898;2023-04-01T16:08:49;100379.13;;;6.30;60.81
70323;BME280;57735;56.264;43.898;2023-04-01T16:14:17;100381.13;;;6.17;61.17
70323;BME280;57735;56.264;43.898;2023-04-01T16:16:58;100367.41;;;6.12;61.59
70323;BME280;57735;56.264;43.898;2023-04-01T16:29:55;100367.19;;;6.04;62.43
70323;BME280;57735;56.264;43.898;2023-04-01T16:32:43;100374.16;;;6.05;62.34
70323;BME280;57735;56.264;43.898;2023-04-01T16:35:29;100387.78;;;6.00;62.40
70323;BME280;57735;56.264;43.898;2023-04-01T16:38:09;100387.78;;;6.00;62.46
70323;BME280;57735;56.264;43.898;2023-04-01T16:40:47;100387.66;;;6.02;62.60
70323;BME280;57735;56.264;43.898;2023-04-01T16:46:05;100384.75;;;6.05;62.74
70323;BME280;57735;56.264;43.898;2023-04-01T16:48:50;100392.44;;;6.08;62.80
70323;BME280;57735;56.264;43.898;2023-04-01T16:51:22;100387.25;;;6.06;62.57
70323;BME280;57735;56.264;43.898;2023-04-01T16:54:01;100383.78;;;6.06;62.74
70323;BME280;57735;56.264;43.898;2023-04-01T16:56:44;100389.34;;;6.03;62.77
70323;BME280;57735;56.264;43.898;2023-04-01T16:59:22;100384.41;;;5.98;62.96
70323;BME280;57735;56.264;43.898;2023-04-01T17:02:09;100379.94;;;5.87;63.12
70323;BME280;57735;56.264;43.898;2023-04-01T17:04:48;100381.91;;;5.74;63.35
70323;BME280;57735;56.264;43.898;2023-04-01T17:20:55;100392.63;;;5.17;64.79
70323;BME280;57735;56.264;43.898;2023-04-01T17:23:30;100388.75;;;5.10;65.04
70323;BME280;57735;56.264;43.898;2023-04-01T17:29:16;100392.25;;;4.99;65.60
70323;BME280;57735;56.264;43.898;2023-04-01T17:35:02;100384.06;;;4.91;66.02
70323;BME280;57735;56.264;43.898;2023-04-01T17:45:41;100385.84;;;4.79;66.47
70323;BME280;57735;56.264;43.898;2023-04-01T17:59:24;100370.94;;;4.67;66.88
70323;BME280;57735;56.264;43.898;2023-04-01T18:02:06;100383.28;;;4.67;66.80
70323;BME280;57735;56.264;43.898;2023-04-01T18:07:34;100380.88;;;4.64;67.38
70323;BME280;57735;56.264;43.898;2023-04-01T18:21:16;100396.13;;;4.71;67.19
70323;BME280;57735;56.264;43.898;2023-04-01T18:26:23;100394.44;;;4.70;67.01
70323;BME280;57735;56.264;43.898;2023-04-01T18:29:41;100402.34;;;4.70;66.98
70323;BME280;57735;56.264;43.898;2023-04-01T18:31:49;100393.75;;;4.68;67.05
70323;BME280;57735;56.264;43.898;2023-04-01T18:34:38;100399.88;;;4.69;67.12
70323;BME280;57735;56.264;43.898;2023-04-01T18:37:21;100403.47;;;4.68;67.40
70323;BME280;57735;56.264;43.898;2023-04-01T18:40:04;100397.22;;;4.69;67.36
70323;BME280;57735;56.264;43.898;2023-04-01T18:45:33;100401.06;;;4.76;66.97
70323;BME280;57735;56.264;43.898;2023-04-01T18:48:09;100399.16;;;4.78;67.06
70323;BME280;57735;56.264;43.898;2023-04-01T18:53:30;100403.50;;;4.90;66.75
70323;BME280;57735;56.264;43.898;2023-04-01T18:56:11;100405.56;;;4.98;66.81
70323;BME280;57735;56.264;43.898;2023-04-01T18:59:00;100407.59;;;5.05;66.69
70323;BME280;57735;56.264;43.898;2023-04-01T19:01:37;100405.00;;;5.16;66.37
70323;BME280;57735;56.264;43.898;2023-04-01T19:04:24;100406.78;;;5.27;66.12
70323;BME280;57735;56.264;43.898;2023-04-01T19:06:58;100406.91;;;5.37;66.14
70323;BME280;57735;56.264;43.898;2023-04-01T19:09:31;100406.22;;;5.46;65.67
70323;BME280;57735;56.264;43.898;2023-04-01T19:25:29;100403.44;;;5.70;65.22
70323;BME280;57735;56.264;43.898;2023-04-01T19:28:16;100401.59;;;5.70;65.31
70323;BME280;57735;56.264;43.898;2023-04-01T19:30:51;100404.97;;;5.72;65.14
70323;BME280;57735;56.264;43.898;2023-04-01T19:36:08;100395.34;;;5.71;64.98
70323;BME280;57735;56.264;43.898;2023-04-01T19:38:53;100400.41;;;5.74;64.87
70323;BME280;57735;56.264;43.898;2023-04-01T19:41:29;100397.66;;;5.76;65.08
70323;BME280;57735;56.264;43.898;2023-04-01T19:44:27;100403.53;;;5.79;64.93
70323;BME280;57735;56.264;43.898;2023-04-01T19:47:08;100413.16;;;5.80;64.83
70323;BME280;57735;56.264;43.898;2023-04-01T19:49:50;100411.59;;;5.78;64.90
70323;BME280;57735;56.264;43.898;2023-04-01T19:52:31;100406.06;;;5.81;64.67
70323;BME280;57735;56.264;43.898;2023-04-01T19:55:15;100414.00;;;5.81;64.62
70323;BME280;57735;56.264;43.898;2023-04-01T19:58:02;100407.63;;;5.83;64.61
70323;BME280;57735;56.264;43.898;2023-04-01T20:00:49;100410.16;;;5.85;64.66
70323;BME280;57735;56.264;43.898;2023-04-01T20:06:04;100411.59;;;5.89;64.67
70323;BME280;57735;56.264;43.898;2023-04-01T20:08:42;100415.09;;;5.89;64.63
70323;BME280;57735;56.264;43.898;2023-04-01T20:11:25;100420.38;;;5.89;65.03
70323;BME280;57735;56.264;43.898;2023-04-01T20:16:48;100420.13;;;5.92;64.66
70323;BME280;57735;56.264;43.898;2023-04-01T20:19:40;100419.53;;;5.89;64.98
70323;BME280;57735;56.264;43.898;2023-04-01T20:24:59;100424.59;;;5.92;65.11
70323;BME280;57735;56.264;43.898;2023-04-01T20:27:39;100436.00;;;5.92;64.90
70323;BME280;57735;56.264;43.898;2023-04-01T20:33:08;100437.69;;;5.93;64.90
70323;BME280;57735;56.264;43.898;2023-04-01T20:43:49;100442.50;;;6.00;65.11
70323;BME280;57735;56.264;43.898;2023-04-01T20:46:40;100445.59;;;6.05;65.11
70323;BME280;57735;56.264;43.898;2023-04-01T20:54:43;100444.28;;;6.10;65.25
70323;BME280;57735;56.264;43.898;2023-04-01T20:57:17;100451.00;;;6.14;65.32
70323;BME280;57735;56.264;43.898;2023-04-01T21:13:25;100467.59;;;6.27;65.28
70323;BME280;57735;56.264;43.898;2023-04-01T21:23:59;100474.66;;;6.38;65.41
70323;BME280;57735;56.264;43.898;2023-04-01T21:29:39;100484.38;;;6.49;65.37
70323;BME280;57735;56.264;43.898;2023-04-01T21:32:06;100480.66;;;6.51;65.32
70323;BME280;57735;56.264;43.898;2023-04-01T21:45:37;100488.34;;;6.43;66.73
70323;BME280;57735;56.264;43.898;2023-04-01T21:53:37;100502.69;;;6.41;67.17
70323;BME280;57735;56.264;43.898;2023-04-01T22:02:03;100489.09;;;6.45;67.57
70323;BME280;57735;56.264;43.898;2023-04-01T22:04:44;100491.00;;;6.43;67.75
70323;BME280;57735;56.264;43.898;2023-04-01T22:07:19;100489.56;;;6.39;67.76
70323;BME280;57735;56.264;43.898;2023-04-01T22:09:53;100484.41;;;6.38;67.78
70323;BME280;57735;56.264;43.898;2023-04-01T22:20:22;100492.69;;;6.44;67.67
70323;BME280;57735;56.264;43.898;2023-04-01T22:31:03;100496.31;;;6.43;67.46
70323;BME280;57735;56.264;43.898;2023-04-01T22:33:48;100496.19;;;6.45;67.48
70323;BME280;57735;56.264;43.898;2023-04-01T22:39:22;100500.63;;;6.44;67.19
70323;BME280;57735;56.264;43.898;2023-04-01T22:44:45;100499.66;;;6.45;67.31
70323;BME280;57735;56.264;43.898;2023-04-01T22:49:59;100496.41;;;6.42;67.01